Time;durP1;ratioP1;P1;durP2;ratioP2;P2;SDS_P1;SDS_P2;PMS_P1;PMS_P2;Temp;Humidity;BMP_temperature;BMP_pressure;BME280_temperature;BME280_humidity;BME280_pressure;Samples;Min_cycle;Max_cycle;Signal;HPM_P1;HPM_P2
2022/03/12 00:00:49;;;;;;;8.73;5.82;;;11.40;99.90;;;;;;5073016;28;20496;-69
2022/03/12 00:03:16;;;;;;;8.48;5.47;;;11.50;99.90;;;;;;5073149;28;20025;-69
2022/03/12 00:05:50;;;;;;;8.27;5.75;;;11.50;99.90;;;;;;5073080;28;20070;-69
2022/03/12 00:08:16;;;;;;;9.90;6.10;;;11.40;99.90;;;;;;5072885;28;20029;-69
2022/03/12 00:10:43;;;;;;;8.98;6.45;;;11.50;99.90;;;;;;5072785;28;20728;-69
2022/03/12 00:13:09;;;;;;;11.63;6.50;;;11.60;99.90;;;;;;5055007;28;20392;-69
2022/03/12 00:15:37;;;;;;;9.25;7.30;;;11.50;99.90;;;;;;5054875;28;20025;-69
2022/03/12 00:18:03;;;;;;;11.32;6.95;;;11.50;99.90;;;;;;5072936;28;20036;-68
2022/03/12 00:20:29;;;;;;;13.27;8.38;;;11.40;99.90;;;;;;5072572;28;20024;-69
2022/03/12 00:22:56;;;;;;;9.85;7.38;;;11.50;99.90;;;;;;5072639;28;20521;-68
2022/03/12 00:25:23;;;;;;;11.23;8.00;;;11.40;99.90;;;;;;5072957;28;20066;-68
2022/03/12 00:27:51;;;;;;;11.70;7.28;;;11.30;99.90;;;;;;5072623;28;20036;-71
2022/03/12 00:30:21;;;;;;;9.82;6.97;;;11.40;99.90;;;;;;5054592;28;20037;-69
2022/03/12 00:32:47;;;;;;;10.75;7.35;;;11.40;99.90;;;;;;5072725;28;20028;-69
2022/03/12 00:35:15;;;;;;;8.75;6.90;;;11.40;99.90;;;;;;5072773;28;20098;-69
2022/03/12 00:37:41;;;;;;;9.75;7.25;;;11.40;99.90;;;;;;5072943;28;20024;-69
2022/03/12 00:40:07;;;;;;;10.27;7.78;;;11.40;99.90;;;;;;5072404;28;20376;-69
2022/03/12 00:42:33;;;;;;;12.07;7.18;;;11.50;99.90;;;;;;5072983;28;20021;-69
2022/03/12 00:44:59;;;;;;;9.10;7.10;;;11.40;99.90;;;;;;5072538;28;20031;-69
2022/03/12 00:47:26;;;;;;;11.18;7.65;;;11.40;99.90;;;;;;5054488;28;20060;-69
2022/03/12 00:49:53;;;;;;;9.52;7.10;;;11.30;99.90;;;;;;5072761;28;20029;-68
2022/03/12 00:52:19;;;;;;;8.73;6.38;;;11.40;99.90;;;;;;5072581;28;20373;-69
2022/03/12 00:54:45;;;;;;;10.30;6.60;;;11.30;99.90;;;;;;5072381;28;20028;-68
2022/03/12 00:57:12;;;;;;;9.63;6.28;;;11.30;99.90;;;;;;5072517;28;20021;-68
2022/03/12 00:59:42;;;;;;;8.45;6.60;;;11.20;99.90;;;;;;5072468;28;20103;-68
2022/03/12 01:02:13;;;;;;;10.45;6.38;;;11.30;99.90;;;;;;5072501;28;20020;-68
2022/03/12 01:04:39;;;;;;;11.60;7.25;;;11.30;99.90;;;;;;5072408;28;20492;-69
2022/03/12 01:07:05;;;;;;;9.30;6.30;;;11.20;99.90;;;;;;5072342;28;20166;-69
2022/03/12 01:09:31;;;;;;;8.85;5.65;;;11.20;99.90;;;;;;5072519;28;20045;-69
2022/03/12 01:11:57;;;;;;;8.15;5.63;;;11.10;99.90;;;;;;5054216;28;20025;-69
2022/03/12 01:14:24;;;;;;;10.02;6.30;;;11.20;99.90;;;;;;5072271;28;20028;-69
2022/03/12 01:16:50;;;;;;;8.15;5.95;;;11.10;99.90;;;;;;5072289;28;20031;-69
2022/03/12 01:19:16;;;;;;;9.35;5.97;;;11.10;99.90;;;;;;5072417;28;20028;-69
2022/03/12 01:21:42;;;;;;;7.47;5.70;;;11.10;99.90;;;;;;5071895;28;20039;-69
2022/03/12 01:24:08;;;;;;;7.65;5.90;;;11.10;99.90;;;;;;5072307;28;20055;-68
2022/03/12 01:26:38;;;;;;;8.80;6.28;;;11.10;99.90;;;;;;5071648;28;20040;-68
2022/03/12 01:29:06;;;;;;;9.00;6.10;;;11.00;99.90;;;;;;5072336;28;20135;-69
2022/03/12 01:31:32;;;;;;;9.20;5.65;;;11.00;99.90;;;;;;5072053;28;20078;-68
2022/03/12 01:33:57;;;;;;;9.32;6.07;;;11.10;99.90;;;;;;5074374;28;20021;-69
2022/03/12 01:36:23;;;;;;;6.97;6.00;;;11.10;99.90;;;;;;5075799;28;20033;-69
2022/03/12 01:38:51;;;;;;;8.10;6.18;;;11.10;99.90;;;;;;5075992;28;20116;-68
2022/03/12 01:41:22;;;;;;;9.00;6.00;;;11.10;99.90;;;;;;5075390;28;20477;-68
2022/03/12 01:43:49;;;;;;;7.28;5.60;;;11.10;99.90;;;;;;5075723;28;20029;-69
2022/03/12 01:46:15;;;;;;;7.40;5.75;;;11.00;99.90;;;;;;5075897;28;20389;-68
2022/03/12 01:48:49;;;;;;;10.45;6.53;;;11.00;99.90;;;;;;5075571;28;20457;-68
2022/03/12 01:51:15;;;;;;;6.93;5.68;;;11.00;99.90;;;;;;5075733;28;20460;-68
2022/03/12 01:53:41;;;;;;;9.57;5.15;;;11.00;99.90;;;;;;5075287;28;20021;-68
2022/03/12 01:56:07;;;;;;;8.50;5.90;;;11.00;99.90;;;;;;5075105;28;20037;-68
2022/03/12 01:58:34;;;;;;;7.60;5.68;;;11.00;99.90;;;;;;5075360;28;20519;-69
2022/03/12 02:01:01;;;;;;;6.55;4.97;;;11.00;99.90;;;;;;5075626;28;20021;-69
2022/03/12 02:03:34;;;;;;;8.50;5.28;;;11.00;99.90;;;;;;5075172;28;20028;-69
2022/03/12 02:05:59;;;;;;;6.18;4.90;;;11.00;99.90;;;;;;5075400;28;20036;-69
2022/03/12 02:08:27;;;;;;;7.90;4.80;;;11.00;99.90;;;;;;5075349;28;20043;-69
2022/03/12 02:10:59;;;;;;;5.45;4.80;;;11.00;99.90;;;;;;5074921;28;20060;-69
2022/03/12 02:13:28;;;;;;;7.95;4.72;;;11.00;99.90;;;;;;5075167;28;20373;-69
2022/03/12 02:16:08;;;;;;;7.13;4.82;;;11.00;99.90;;;;;;5075394;28;20032;-68
2022/03/12 02:18:38;;;;;;;6.65;4.80;;;10.90;99.90;;;;;;5075194;28;20116;-68
2022/03/12 02:21:04;;;;;;;5.03;4.05;;;10.80;99.90;;;;;;5075137;28;20033;-69
2022/03/12 02:23:50;;;;;;;8.25;4.30;;;10.80;99.90;;;;;;5074725;28;20115;-69
2022/03/12 02:26:16;;;;;;;5.28;4.22;;;10.80;99.90;;;;;;5074724;28;20556;-69
2022/03/12 02:28:41;;;;;;;5.40;4.43;;;10.80;99.90;;;;;;5074648;28;20120;-69
2022/03/12 02:31:08;;;;;;;7.47;4.28;;;10.70;99.90;;;;;;5075036;28;20054;-68
2022/03/12 02:33:33;;;;;;;6.55;4.20;;;10.70;99.90;;;;;;5074761;28;20112;-69
2022/03/12 02:35:59;;;;;;;5.72;3.83;;;10.60;99.90;;;;;;5074768;28;20441;-69
2022/03/12 02:38:28;;;;;;;4.05;3.03;;;10.60;99.90;;;;;;5074795;28;20029;-69
2022/03/12 02:40:56;;;;;;;6.70;3.95;;;10.60;99.90;;;;;;5074453;28;20036;-69
2022/03/12 02:43:26;;;;;;;5.10;3.72;;;10.60;99.90;;;;;;5074463;28;20126;-69
2022/03/12 02:46:02;;;;;;;6.30;4.28;;;10.60;99.90;;;;;;5074296;28;20051;-69
2022/03/12 02:48:27;;;;;;;6.53;4.28;;;10.60;99.90;;;;;;5074492;28;20107;-69
2022/03/12 02:50:54;;;;;;;4.78;3.88;;;10.60;99.90;;;;;;5074366;28;20437;-69
2022/03/12 02:53:20;;;;;;;5.28;3.67;;;10.60;99.90;;;;;;5074387;28;20097;-69
2022/03/12 02:55:46;;;;;;;4.60;3.13;;;10.60;99.90;;;;;;5074126;28;20043;-69
2022/03/12 02:58:14;;;;;;;6.10;3.58;;;10.60;99.90;;;;;;5074188;28;20029;-69
2022/03/12 03:00:40;;;;;;;6.05;3.47;;;10.60;99.90;;;;;;5074256;28;20032;-68
2022/03/12 03:03:06;;;;;;;4.60;3.50;;;10.60;99.90;;;;;;5074274;28;20028;-69
2022/03/12 03:05:45;;;;;;;6.35;4.13;;;10.60;99.90;;;;;;5074107;28;20029;-68
2022/03/12 03:08:22;;;;;;;4.70;3.60;;;10.60;99.90;;;;;;5058918;28;20103;-69
2022/03/12 03:10:50;;;;;;;5.28;3.38;;;10.60;99.90;;;;;;5062730;28;20610;-69
2022/03/12 03:13:16;;;;;;;3.92;3.40;;;10.60;99.90;;;;;;5074292;28;20051;-69
2022/03/12 03:16:00;;;;;;;5.55;3.75;;;10.60;99.90;;;;;;5074132;28;20470;-69
2022/03/12 03:18:32;;;;;;;5.72;3.97;;;10.50;99.90;;;;;;5073904;28;20047;-69
2022/03/12 03:20:59;;;;;;;5.93;3.58;;;10.40;99.90;;;;;;5073832;28;20016;-69
2022/03/12 03:23:28;;;;;;;5.28;3.50;;;10.40;99.90;;;;;;5073450;28;20036;-69
2022/03/12 03:25:54;;;;;;;6.72;4.20;;;10.30;99.90;;;;;;5073780;28;20580;-69
2022/03/12 03:28:21;;;;;;;7.57;4.07;;;10.20;99.90;;;;;;5073609;28;20464;-69
2022/03/12 03:30:47;;;;;;;5.72;4.00;;;10.20;99.90;;;;;;5073542;28;20094;-69
2022/03/12 03:33:17;;;;;;;6.07;4.15;;;10.20;99.90;;;;;;5073711;28;20052;-69
2022/03/12 03:35:43;;;;;;;4.28;3.58;;;10.20;99.90;;;;;;5073480;28;20109;-69
2022/03/12 03:38:10;;;;;;;6.50;4.03;;;10.20;99.90;;;;;;5073385;28;20100;-70
2022/03/12 03:40:36;;;;;;;6.85;3.97;;;10.20;99.90;;;;;;5073537;28;20032;-69
2022/03/12 03:43:06;;;;;;;5.22;4.13;;;10.20;99.90;;;;;;5073487;28;20550;-69
2022/03/12 03:45:32;;;;;;;5.07;4.07;;;10.30;99.90;;;;;;5073408;28;20041;-69
2022/03/12 03:47:57;;;;;;;5.57;4.30;;;10.30;99.90;;;;;;5073193;28;20034;-69
2022/03/12 03:50:27;;;;;;;5.88;4.35;;;10.30;99.90;;;;;;5073395;28;20028;-69
2022/03/12 03:52:58;;;;;;;7.55;4.47;;;10.30;99.90;;;;;;5073533;28;20040;-69
2022/03/12 03:55:28;;;;;;;5.78;3.85;;;10.40;99.90;;;;;;5072886;28;20369;-69
2022/03/12 03:57:57;;;;;;;5.47;4.05;;;10.30;99.90;;;;;;5073041;28;20118;-69
2022/03/12 04:00:23;;;;;;;5.68;4.15;;;10.40;99.90;;;;;;5073169;28;20031;-69
2022/03/12 04:03:01;;;;;;;5.88;4.68;;;10.40;99.90;;;;;;5073217;28;20032;-69
2022/03/12 04:05:31;;;;;;;7.18;3.97;;;10.40;99.90;;;;;;5073437;28;20032;-68
2022/03/12 04:07:57;;;;;;;5.25;3.85;;;10.40;99.90;;;;;;5054644;28;20046;-69
2022/03/12 04:10:24;;;;;;;9.60;4.35;;;10.40;99.90;;;;;;5072835;28;20081;-69
2022/03/12 04:12:50;;;;;;;4.97;3.90;;;10.40;99.90;;;;;;5072876;28;20028;-69
2022/03/12 04:15:17;;;;;;;6.63;4.55;;;10.50;99.90;;;;;;5073083;28;20029;-69
2022/03/12 04:17:44;;;;;;;5.57;4.10;;;10.50;99.90;;;;;;5072835;28;20449;-69
2022/03/12 04:20:14;;;;;;;6.22;4.57;;;10.40;99.90;;;;;;5072639;28;20039;-69
2022/03/12 04:22:40;;;;;;;5.63;4.78;;;10.30;99.90;;;;;;5072356;28;20036;-69
2022/03/12 04:25:14;;;;;;;7.55;4.50;;;10.20;99.90;;;;;;5072738;28;20036;-69
2022/03/12 04:27:44;;;;;;;4.90;3.90;;;10.20;99.90;;;;;;5072770;28;20021;-69
2022/03/12 04:30:15;;;;;;;8.60;4.13;;;10.10;99.90;;;;;;5072692;28;20040;-69
2022/03/12 04:32:45;;;;;;;8.13;4.55;;;10.20;99.90;;;;;;5072890;28;20029;-69
2022/03/12 04:35:11;;;;;;;6.07;4.30;;;10.10;99.90;;;;;;5072281;28;20060;-69
2022/03/12 04:37:37;;;;;;;6.68;4.13;;;10.10;99.90;;;;;;5072595;28;20033;-69
2022/03/12 04:40:10;;;;;;;11.75;3.75;;;10.10;99.90;;;;;;5072723;28;20358;-69
2022/03/12 04:42:38;;;;;;;6.57;4.07;;;10.00;99.90;;;;;;5072776;28;20036;-69
2022/03/12 04:45:08;;;;;;;6.93;4.38;;;10.10;99.90;;;;;;5072572;28;20020;-69
2022/03/12 04:47:34;;;;;;;6.10;4.13;;;10.00;99.90;;;;;;5072437;28;20485;-69
2022/03/12 04:50:02;;;;;;;10.75;4.45;;;9.90;99.90;;;;;;5072375;28;20400;-69
2022/03/12 04:52:29;;;;;;;8.85;4.65;;;9.90;99.90;;;;;;5072873;28;20017;-69
2022/03/12 04:54:56;;;;;;;5.80;4.70;;;9.90;99.90;;;;;;5072528;28;20052;-69
2022/03/12 04:57:22;;;;;;;9.85;4.57;;;9.90;99.90;;;;;;5072436;28;20025;-69
2022/03/12 04:59:48;;;;;;;9.90;4.50;;;9.90;99.90;;;;;;5072457;28;20103;-69
2022/03/12 05:02:13;;;;;;;9.25;4.80;;;9.90;99.90;;;;;;5072206;28;20641;-69
2022/03/12 05:04:40;;;;;;;9.13;4.28;;;9.80;99.90;;;;;;5071838;28;20074;-68
2022/03/12 05:07:07;;;;;;;8.45;5.30;;;9.80;99.90;;;;;;5073097;28;20104;-68
2022/03/12 05:09:33;;;;;;;8.25;4.40;;;9.80;99.90;;;;;;5076359;28;20085;-69
2022/03/12 05:12:01;;;;;;;7.47;4.70;;;9.80;99.90;;;;;;5076182;28;20103;-69
2022/03/12 05:14:27;;;;;;;6.45;4.38;;;9.70;99.90;;;;;;5076366;28;20036;-69
2022/03/12 05:16:52;;;;;;;8.52;5.05;;;9.80;99.90;;;;;;5076176;28;20033;-68
2022/03/12 05:19:20;;;;;;;11.00;5.32;;;9.80;99.90;;;;;;5075774;28;20016;-69
2022/03/12 05:21:46;;;;;;;7.35;4.68;;;9.80;99.90;;;;;;5075918;28;20033;-69
2022/03/12 05:24:13;;;;;;;8.32;5.05;;;9.90;99.90;;;;;;5076269;28;20419;-69
2022/03/12 05:26:39;;;;;;;7.15;4.90;;;9.80;99.90;;;;;;5075815;28;20029;-69
2022/03/12 05:29:10;;;;;;;9.65;5.57;;;9.80;99.90;;;;;;5075883;28;20086;-69
2022/03/12 05:31:39;;;;;;;6.25;4.28;;;9.80;99.90;;;;;;5075895;28;20028;-69
2022/03/12 05:34:05;;;;;;;11.80;5.00;;;9.80;99.90;;;;;;5075585;28;20123;-68
2022/03/12 05:36:31;;;;;;;11.05;4.93;;;9.80;99.90;;;;;;5075912;28;20386;-68
2022/03/12 05:38:56;;;;;;;10.75;5.55;;;9.80;99.90;;;;;;5075773;28;20036;-69
2022/03/12 05:41:22;;;;;;;8.88;5.20;;;9.80;99.90;;;;;;5075874;28;20025;-68
2022/03/12 05:43:49;;;;;;;14.63;5.00;;;9.80;99.90;;;;;;5075557;28;20119;-69
2022/03/12 05:46:18;;;;;;;10.45;5.10;;;9.70;99.90;;;;;;5075719;28;20028;-68
2022/03/12 05:48:46;;;;;;;9.23;4.60;;;9.70;99.90;;;;;;5075344;28;20472;-69
2022/03/12 05:51:12;;;;;;;10.32;4.80;;;9.70;99.90;;;;;;5075458;28;20043;-69
2022/03/12 05:53:38;;;;;;;9.38;4.65;;;9.70;99.90;;;;;;5057398;28;20496;-69
2022/03/12 05:56:04;;;;;;;10.65;3.83;;;9.70;99.90;;;;;;5075683;28;20568;-69
2022/03/12 05:58:35;;;;;;;7.90;3.97;;;9.70;99.90;;;;;;5075529;28;20029;-69
2022/03/12 06:01:01;;;;;;;6.13;3.75;;;9.60;99.90;;;;;;5075483;28;20086;-69
2022/03/12 06:03:27;;;;;;;10.13;4.20;;;9.60;99.90;;;;;;5075121;28;20499;-69
2022/03/12 06:05:58;;;;;;;12.57;4.45;;;9.60;99.90;;;;;;5075646;28;20032;-69
2022/03/12 06:08:28;;;;;;;7.45;4.35;;;9.50;99.90;;;;;;5075112;28;20040;-69
2022/03/12 06:10:55;;;;;;;9.77;3.95;;;9.50;99.90;;;;;;5075282;28;20481;-69
2022/03/12 06:13:30;;;;;;;10.77;3.70;;;9.60;99.90;;;;;;5075149;28;20024;-69
2022/03/12 06:16:00;;;;;;;11.13;4.32;;;9.50;99.90;;;;;;5075187;28;20488;-69
2022/03/12 06:18:32;;;;;;;6.93;3.45;;;9.60;99.90;;;;;;5074158;28;20056;-69
2022/03/12 06:20:59;;;;;;;14.88;3.67;;;9.60;99.90;;;;;;5057101;28;20377;-69
2022/03/12 06:23:25;;;;;;;9.68;3.80;;;9.50;99.90;;;;;;5074967;28;20515;-69
2022/03/12 06:25:52;;;;;;;13.32;4.05;;;9.60;99.90;;;;;;5075056;28;20025;-69
2022/03/12 06:28:19;;;;;;;6.93;3.03;;;9.50;99.90;;;;;;5074568;28;20032;-69
2022/03/12 06:30:47;;;;;;;9.52;3.80;;;9.50;99.90;;;;;;5074899;28;20024;-69
2022/03/12 06:33:15;;;;;;;10.73;3.78;;;9.50;99.90;;;;;;5074616;28;20017;-69
2022/03/12 06:35:42;;;;;;;15.35;3.88;;;9.50;99.90;;;;;;5074996;28;20119;-68
2022/03/12 06:38:10;;;;;;;10.40;4.10;;;9.50;99.90;;;;;;5074669;28;20381;-69
2022/03/12 06:40:36;;;;;;;7.78;3.55;;;9.50;99.90;;;;;;5074626;28;20056;-69
2022/03/12 06:43:11;;;;;;;8.55;3.70;;;9.50;99.90;;;;;;5074429;28;20112;-69
2022/03/12 06:45:37;;;;;;;8.18;3.78;;;9.50;99.90;;;;;;5074522;28;20093;-69
2022/03/12 06:48:03;;;;;;;8.05;3.47;;;9.60;99.90;;;;;;5039930;28;20058;-69
2022/03/12 06:50:29;;;;;;;5.03;3.20;;;9.60;99.90;;;;;;5074436;28;20112;-68
2022/03/12 06:52:56;;;;;;;14.23;3.40;;;9.60;99.90;;;;;;5054445;28;20021;-69
2022/03/12 06:55:24;;;;;;;12.93;3.50;;;9.60;99.90;;;;;;5072461;28;20043;-69
2022/03/12 06:57:51;;;;;;;14.18;3.33;;;9.60;99.90;;;;;;5039643;28;20431;-69
2022/03/12 07:00:22;;;;;;;7.57;3.30;;;9.70;99.90;;;;;;5072944;28;20503;-68
2022/03/12 07:02:48;;;;;;;9.32;3.42;;;9.70;99.90;;;;;;5073532;28;20032;-69
2022/03/12 07:05:14;;;;;;;9.07;3.45;;;9.70;99.90;;;;;;5073833;28;20024;-69
2022/03/12 07:07:40;;;;;;;7.80;3.50;;;9.70;99.90;;;;;;5071076;28;20029;-69
2022/03/12 07:10:08;;;;;;;9.63;3.67;;;9.80;99.90;;;;;;5054987;28;20055;-68
2022/03/12 07:12:39;;;;;;;6.05;3.28;;;9.70;99.90;;;;;;5073254;28;20074;-69
2022/03/12 07:15:05;;;;;;;11.88;4.07;;;9.80;99.90;;;;;;5072633;28;20063;-69
2022/03/12 07:17:31;;;;;;;7.75;3.60;;;9.80;99.90;;;;;;5072946;28;20107;-69
2022/03/12 07:19:57;;;;;;;9.23;3.60;;;9.80;99.90;;;;;;5070609;28;20032;-69
2022/03/12 07:22:26;;;;;;;5.28;3.35;;;9.80;99.90;;;;;;5059889;28;20029;-69
2022/03/12 07:24:52;;;;;;;16.45;4.20;;;9.80;99.90;;;;;;5043777;28;20111;-69
2022/03/12 07:27:18;;;;;;;12.32;3.85;;;9.90;99.90;;;;;;5068822;28;20020;-68
2022/03/12 07:29:44;;;;;;;12.90;4.25;;;9.90;99.90;;;;;;5072585;28;20079;-69
2022/03/12 07:32:11;;;;;;;12.25;3.88;;;9.90;99.90;;;;;;5072013;28;20044;-69
2022/03/12 07:34:37;;;;;;;12.82;3.88;;;10.00;99.90;;;;;;5073316;28;20499;-69
2022/03/12 07:37:04;;;;;;;10.82;4.32;;;10.00;99.90;;;;;;5073374;28;20469;-68
2022/03/12 07:39:29;;;;;;;11.90;3.95;;;10.10;99.90;;;;;;5073004;28;20025;-69
2022/03/12 07:41:55;;;;;;;10.98;3.80;;;10.30;99.90;;;;;;5073107;28;20036;-69
2022/03/12 07:44:23;;;;;;;19.83;3.65;;;10.30;99.90;;;;;;5054902;28;20016;-69
2022/03/12 07:46:49;;;;;;;9.82;3.30;;;10.40;99.90;;;;;;5055132;28;20111;-69
2022/03/12 07:49:15;;;;;;;8.75;3.83;;;10.50;99.90;;;;;;5072726;28;20386;-69
2022/03/12 07:51:43;;;;;;;6.45;3.03;;;10.50;99.90;;;;;;5072904;28;20036;-69
2022/03/12 07:54:12;;;;;;;8.10;3.15;;;10.60;99.90;;;;;;5072612;28;20086;-69
2022/03/12 07:56:39;;;;;;;7.75;3.35;;;10.70;99.90;;;;;;5072864;28;20035;-70
2022/03/12 07:59:05;;;;;;;7.60;3.38;;;10.80;99.90;;;;;;5072795;28;20110;-69
2022/03/12 08:01:30;;;;;;;7.15;2.70;;;10.90;99.90;;;;;;5072786;28;20060;-68
2022/03/12 08:03:56;;;;;;;5.50;2.90;;;10.90;99.90;;;;;;5072672;28;20488;-69
2022/03/12 08:06:22;;;;;;;8.98;3.65;;;10.90;99.90;;;;;;5071696;28;20477;-68
2022/03/12 08:08:48;;;;;;;10.73;3.20;;;10.80;99.90;;;;;;5071351;28;20029;-69
2022/03/12 08:11:28;;;;;;;9.52;3.25;;;10.70;99.90;;;;;;5072295;28;20028;-69
2022/03/12 08:13:57;;;;;;;9.13;3.17;;;10.90;99.90;;;;;;5072673;28;20045;-69
2022/03/12 08:16:24;;;;;;;10.90;3.42;;;10.90;99.90;;;;;;5072695;28;20042;-68
2022/03/12 08:18:50;;;;;;;8.82;3.28;;;10.80;99.90;;;;;;5072740;28;20100;-68
2022/03/12 08:21:16;;;;;;;9.10;2.95;;;10.60;99.90;;;;;;5054556;28;20450;-69
2022/03/12 08:23:42;;;;;;;9.80;3.22;;;10.60;99.90;;;;;;5072833;28;20063;-68
2022/03/12 08:26:08;;;;;;;7.05;2.75;;;10.60;99.90;;;;;;5072185;28;20512;-68
2022/03/12 08:28:37;;;;;;;13.35;3.92;;;10.40;99.90;;;;;;5067462;28;20020;-68
2022/03/12 08:31:04;;;;;;;9.23;3.22;;;10.50;99.90;;;;;;5072490;28;20090;-68
2022/03/12 08:33:31;;;;;;;8.90;3.67;;;10.60;99.90;;;;;;5072666;28;20042;-68
2022/03/12 08:35:57;;;;;;;7.70;3.20;;;10.60;99.90;;;;;;5072501;28;20033;-70
2022/03/12 08:38:24;;;;;;;15.88;3.22;;;10.60;99.90;;;;;;5072637;28;20078;-68
2022/03/12 08:40:51;;;;;;;11.55;3.67;;;10.60;99.90;;;;;;5072353;28;20025;-68
2022/03/12 08:43:17;;;;;;;12.13;4.13;;;10.60;99.90;;;;;;5071836;28;20099;-68
2022/03/12 08:45:43;;;;;;;11.30;3.30;;;10.60;99.90;;;;;;5072199;28;20025;-68
2022/03/12 08:48:10;;;;;;;10.30;3.25;;;10.60;99.90;;;;;;5072525;28;20108;-68
2022/03/12 08:50:35;;;;;;;19.20;4.05;;;10.60;99.90;;;;;;5072748;28;20024;-68
2022/03/12 08:53:02;;;;;;;14.80;3.83;;;10.70;99.90;;;;;;5072203;28;20027;-69
2022/03/12 08:55:28;;;;;;;13.07;3.60;;;10.80;99.90;;;;;;5072591;28;20032;-68
2022/03/12 08:57:55;;;;;;;9.98;3.65;;;10.80;99.90;;;;;;5071953;28;20028;-68
2022/03/12 09:00:23;;;;;;;10.82;4.10;;;11.00;99.90;;;;;;5061175;28;20380;-69
2022/03/12 09:02:50;;;;;;;7.47;2.58;;;11.20;99.90;;;;;;5052106;28;20100;-68
2022/03/12 09:05:16;;;;;;;15.55;3.67;;;11.20;99.90;;;;;;5052566;28;20087;-68
2022/03/12 09:07:43;;;;;;;11.85;4.30;;;11.20;99.90;;;;;;5052230;28;20028;-69
2022/03/12 09:10:11;;;;;;;11.38;3.17;;;11.30;99.90;;;;;;5055469;28;20047;-68
2022/03/12 09:12:41;;;;;;;11.30;3.63;;;11.10;99.90;;;;;;5072017;28;20020;-68
2022/03/12 09:15:08;;;;;;;9.73;2.80;;;11.20;99.90;;;;;;5072304;28;20068;-68
2022/03/12 09:17:34;;;;;;;10.48;2.55;;;11.40;99.90;;;;;;5072602;28;20016;-74
2022/03/12 09:20:00;;;;;;;7.20;2.33;;;11.40;99.90;;;;;;5054496;28;20500;-68
2022/03/12 09:22:26;;;;;;;15.45;3.10;;;11.40;99.90;;;;;;5071808;28;20041;-68
2022/03/12 09:24:53;;;;;;;8.90;2.33;;;11.40;99.90;;;;;;5072341;28;20086;-68
2022/03/12 09:27:19;;;;;;;11.65;3.22;;;11.40;99.90;;;;;;5071617;28;20456;-68
2022/03/12 09:29:44;;;;;;;12.65;2.63;;;11.40;99.90;;;;;;5072105;28;20082;-68
2022/03/12 09:32:10;;;;;;;8.82;2.55;;;11.40;99.90;;;;;;5053856;28;20074;-68
2022/03/12 09:34:37;;;;;;;8.70;2.97;;;11.40;99.90;;;;;;5072248;28;20067;-68
2022/03/12 09:37:04;;;;;;;8.07;2.88;;;11.20;99.90;;;;;;5072046;28;20087;-68
2022/03/12 09:39:31;;;;;;;10.25;2.78;;;11.40;99.90;;;;;;5072184;28;20059;-68
2022/03/12 09:41:57;;;;;;;10.85;2.97;;;11.60;99.90;;;;;;5071523;28;20032;-67
2022/03/12 09:44:23;;;;;;;8.43;2.90;;;11.60;99.90;;;;;;5069795;28;20025;-69
2022/03/12 09:46:49;;;;;;;8.88;2.90;;;11.90;99.90;;;;;;5070338;28;20020;-68
2022/03/12 09:49:16;;;;;;;8.73;2.67;;;12.10;99.90;;;;;;5070819;28;20489;-68
2022/03/12 09:51:43;;;;;;;8.15;2.83;;;12.00;99.90;;;;;;5072076;28;20024;-68
2022/03/12 09:54:11;;;;;;;12.18;2.65;;;11.80;99.90;;;;;;5072498;28;20029;-68
2022/03/12 09:56:37;;;;;;;4.38;2.35;;;11.90;99.90;;;;;;5075278;28;20032;-68
2022/03/12 09:59:05;;;;;;;8.73;3.83;;;11.80;99.90;;;;;;5075594;28;20036;-68
2022/03/12 10:01:32;;;;;;;6.07;2.67;;;11.70;99.90;;;;;;5075389;28;20033;-68
2022/03/12 10:03:58;;;;;;;8.27;2.80;;;11.70;99.90;;;;;;5075155;28;20062;-69
2022/03/12 10:06:24;;;;;;;8.98;3.30;;;11.70;99.90;;;;;;5075459;28;20393;-68
2022/03/12 10:08:50;;;;;;;7.65;2.25;;;11.80;99.90;;;;;;5074690;28;20029;-68
2022/03/12 10:11:17;;;;;;;8.70;2.90;;;12.00;99.90;;;;;;5075049;28;20416;-68
2022/03/12 10:13:43;;;;;;;13.57;3.05;;;12.00;99.90;;;;;;5040262;28;20057;-69
2022/03/12 10:16:09;;;;;;;11.90;4.20;;;12.10;99.90;;;;;;5054038;28;20066;-68
2022/03/12 10:18:36;;;;;;;10.48;2.88;;;12.20;99.90;;;;;;5037703;28;20016;-68
2022/03/12 10:21:02;;;;;;;10.63;2.83;;;12.60;99.90;;;;;;5054440;28;20037;-68
2022/03/12 10:23:28;;;;;;;8.82;3.10;;;12.70;99.90;;;;;;5054389;28;20032;-69
2022/03/12 10:25:54;;;;;;;11.60;3.00;;;13.00;99.90;;;;;;5069036;28;20029;-69
2022/03/12 10:28:20;;;;;;;7.82;3.17;;;13.00;99.90;;;;;;5074109;28;20041;-71
2022/03/12 10:30:46;;;;;;;9.88;2.95;;;13.10;99.90;;;;;;5074937;28;20028;-69
2022/03/12 10:33:21;;;;;;;11.00;3.28;;;13.40;99.90;;;;;;5062612;28;20123;-71
2022/03/12 10:35:47;;;;;;;19.15;3.38;;;13.20;99.90;;;;;;5054623;28;20036;-70
2022/03/12 10:38:14;;;;;;;12.88;2.78;;;13.40;99.90;;;;;;5035011;28;20029;-70
2022/03/12 10:40:40;;;;;;;10.95;3.00;;;13.30;99.90;;;;;;5054873;28;20029;-71
2022/03/12 10:43:15;;;;;;;8.27;3.05;;;13.40;99.90;;;;;;5054485;28;20452;-71
2022/03/12 10:45:46;;;;;;;12.10;2.78;;;13.50;99.90;;;;;;5054601;28;20064;-70
2022/03/12 10:48:14;;;;;;;6.70;2.70;;;13.30;99.90;;;;;;5054496;28;20087;-70
2022/03/12 10:50:44;;;;;;;7.72;2.53;;;13.10;99.90;;;;;;5054429;28;20039;-71
2022/03/12 10:53:11;;;;;;;14.60;2.83;;;13.00;99.90;;;;;;5054160;28;20060;-70
2022/03/12 10:55:42;;;;;;;9.68;2.63;;;13.10;99.90;;;;;;5054595;28;20036;-70
2022/03/12 10:58:20;;;;;;;8.88;2.67;;;13.20;99.90;;;;;;5054498;28;20041;-70
2022/03/12 11:00:52;;;;;;;9.75;2.63;;;13.40;99.90;;;;;;5054350;28;20039;-70
2022/03/12 11:03:20;;;;;;;;;;;13.70;99.90;;;;;;5054355;28;20469;-70
2022/03/12 11:05:47;;;;;;;10.18;2.60;;;13.80;99.90;;;;;;5053794;28;19912;-70
2022/03/12 11:08:21;;;;;;;14.55;2.67;;;13.70;99.90;;;;;;5035877;28;20478;-70
2022/03/12 11:10:58;;;;;;;10.50;2.90;;;13.90;99.90;;;;;;5062326;28;20028;-70
2022/03/12 11:13:47;;;;;;;9.63;2.35;;;14.10;99.90;;;;;;5073810;28;20036;-71
2022/03/12 11:16:32;;;;;;;7.03;2.05;;;14.10;99.90;;;;;;5055882;28;20526;-70
2022/03/12 11:19:08;;;;;;;6.65;2.10;;;14.20;99.80;;;;;;5056025;28;20124;-70
2022/03/12 11:21:52;;;;;;;5.75;2.00;;;14.30;99.40;;;;;;5073303;28;20123;-71
2022/03/12 11:24:23;;;;;;;13.30;2.45;;;14.30;99.20;;;;;;5073168;28;20036;-71
2022/03/12 11:26:51;;;;;;;;;;;14.20;99.50;;;;;;5073748;28;20366;-70
2022/03/12 11:29:19;;;;;;;11.85;2.58;;;14.40;99.70;;;;;;5073532;28;19913;-71
2022/03/12 11:31:50;;;;;;;6.53;2.80;;;14.80;99.10;;;;;;5055677;28;20432;-70
2022/03/12 11:34:19;;;;;;;10.93;2.50;;;14.90;98.20;;;;;;5073262;28;20040;-70
2022/03/12 11:36:57;;;;;;;9.93;2.92;;;14.80;98.60;;;;;;5073043;28;20077;-71
2022/03/12 11:39:31;;;;;;;8.73;2.28;;;15.10;97.40;;;;;;5073307;28;20126;-71
2022/03/12 11:42:30;;;;;;;13.50;2.47;;;14.50;98.00;;;;;;5073300;28;20090;-70
2022/03/12 11:44:58;;;;;;;14.32;2.70;;;15.00;97.90;;;;;;5072996;28;20036;-70
2022/03/12 11:47:26;;;;;;;10.38;2.47;;;15.10;97.90;;;;;;5073153;28;20025;-70
2022/03/12 11:49:54;;;;;;;6.65;2.25;;;15.20;97.40;;;;;;5054982;28;20033;-71
2022/03/12 11:52:20;;;;;;;12.70;4.13;;;15.10;97.70;;;;;;5073064;28;20059;-70
2022/03/12 11:54:47;;;;;;;9.80;2.92;;;15.30;98.00;;;;;;5073068;28;20153;-70
2022/03/12 11:57:27;;;;;;;6.75;2.08;;;15.50;97.10;;;;;;5072867;28;20409;-71
2022/03/12 11:59:55;;;;;;;15.18;2.88;;;15.60;96.90;;;;;;5054861;28;20037;-71
2022/03/12 12:02:26;;;;;;;6.95;2.55;;;15.50;97.10;;;;;;5073007;28;20021;-70
2022/03/12 12:04:53;;;;;;;10.02;2.78;;;15.50;96.90;;;;;;5072734;28;20040;-70
2022/03/12 12:07:21;;;;;;;6.40;2.10;;;16.00;96.70;;;;;;5073108;28;20100;-71
2022/03/12 12:09:47;;;;;;;6.35;2.83;;;16.80;95.20;;;;;;5072448;28;20040;-70
2022/03/12 12:12:13;;;;;;;9.68;3.17;;;16.80;95.80;;;;;;5055117;28;20119;-71
2022/03/12 12:14:45;;;;;;;8.93;2.88;;;16.10;96.10;;;;;;5053439;28;20033;-71
2022/03/12 12:17:11;;;;;;;17.85;3.17;;;15.90;96.20;;;;;;5051974;28;20033;-71
2022/03/12 12:19:37;;;;;;;11.93;3.40;;;15.80;96.60;;;;;;5034632;28;20043;-71
2022/03/12 12:22:07;;;;;;;6.35;2.30;;;15.80;96.30;;;;;;5052142;28;20032;-71
2022/03/12 12:24:36;;;;;;;10.30;2.80;;;16.00;96.20;;;;;;5034827;28;20466;-71
2022/03/12 12:27:06;;;;;;;11.02;3.00;;;16.70;95.50;;;;;;5056885;28;20021;-71
2022/03/12 12:29:41;;;;;;;7.68;2.83;;;16.50;95.50;;;;;;5072649;28;20050;-71
2022/03/12 12:32:11;;;;;;;10.80;3.35;;;15.90;95.70;;;;;;5072538;28;20064;-70
2022/03/12 12:34:56;;;;;;;12.70;3.07;;;15.70;96.40;;;;;;5072367;28;20330;-70
2022/03/12 12:37:39;;;;;;;8.23;2.80;;;16.50;96.20;;;;;;5072470;28;20032;-70
2022/03/12 12:40:12;;;;;;;8.88;2.25;;;16.80;95.20;;;;;;5072450;28;20078;-70
2022/03/12 12:42:42;;;;;;;9.63;2.78;;;17.10;95.00;;;;;;5072285;28;20450;-70
2022/03/12 12:45:16;;;;;;;10.93;2.78;;;17.10;94.60;;;;;;5072480;28;20076;-70
2022/03/12 12:47:42;;;;;;;5.40;2.00;;;16.40;95.00;;;;;;5072538;28;20054;-70
2022/03/12 12:50:25;;;;;;;7.03;2.72;;;16.80;94.50;;;;;;5072006;28;20033;-70